Terminal Aerodrome Forecast
Issued by NWS

Home | Current Version | Previous Version | Text Only | Print | Product List | Glossary On
Versions: 1 2 3 4 5 6 7 8 9 10 11 12
192
FTUS44 KSJT 071120
TAFBBD
TAF
KBBD 071120Z 0712/0812 25004KT P6SM SKC
     FM071700 25012G18KT P6SM SKC
     FM080000 33008KT P6SM SCT250
     FM080400 36009G15KT P6SM SKC
     FM080500 02006KT P6SM SKC
      AMD NOT SKED=

USA.gov is the U.S. government's official web portal to all federal, state and local government web resources and services.